createdAt,value
2023-03-05T00:01:28.012Z,23.08
2023-03-05T00:04:15.464Z,23.60
2023-03-05T00:07:01.228Z,22.20
2023-03-05T00:09:46.477Z,21.55
2023-03-05T00:12:32.178Z,20.48
2023-03-05T00:15:18.005Z,23.23
2023-03-05T00:18:03.819Z,21.30
2023-03-05T00:20:49.722Z,22.70
2023-03-05T00:23:35.244Z,23.13
2023-03-05T00:26:23.111Z,21.90
2023-03-05T00:29:09.408Z,22.17
2023-03-05T00:31:56.029Z,24.80
2023-03-05T00:34:41.595Z,23.73
2023-03-05T00:37:27.352Z,21.73
2023-03-05T00:40:13.468Z,21.08
2023-03-05T00:42:59.004Z,23.55
2023-03-05T00:45:44.662Z,24.08
2023-03-05T00:48:31.121Z,21.15
2023-03-05T00:51:16.469Z,22.15
2023-03-05T00:54:02.325Z,23.70
2023-03-05T00:56:49.135Z,21.88
2023-03-05T00:59:34.630Z,22.73
2023-03-05T01:02:20.256Z,21.30
2023-03-05T01:05:06.268Z,22.13
2023-03-05T01:07:55.899Z,21.75
2023-03-05T01:13:27.519Z,20.13
2023-03-05T01:16:13.337Z,21.13
2023-03-05T01:18:58.926Z,22.48
2023-03-05T01:21:44.473Z,24.65
2023-03-05T01:24:31.414Z,24.63
2023-03-05T01:27:16.768Z,23.02
2023-03-05T01:30:02.482Z,22.65
2023-03-05T01:32:48.092Z,23.40
2023-03-05T01:35:33.581Z,22.95
2023-03-05T01:38:19.100Z,21.90
2023-03-05T01:41:04.837Z,22.67
2023-03-05T01:43:53.152Z,22.25
2023-03-05T01:46:39.141Z,22.50
2023-03-05T01:49:35.448Z,23.52
2023-03-05T01:52:23.116Z,22.58
2023-03-05T01:55:13.882Z,22.58
2023-03-05T01:58:08.017Z,24.08
2023-03-05T02:00:55.492Z,22.70
2023-03-05T02:03:42.362Z,21.92
2023-03-05T02:06:28.908Z,21.35
2023-03-05T02:09:14.796Z,22.10
2023-03-05T02:12:00.646Z,21.30
2023-03-05T02:14:50.275Z,22.63
2023-03-05T02:17:36.296Z,21.02
2023-03-05T02:20:24.825Z,21.52
2023-03-05T02:23:10.858Z,19.92
2023-03-05T02:25:56.881Z,21.20
2023-03-05T02:28:49.328Z,21.77
2023-03-05T02:31:34.578Z,21.80
2023-03-05T02:34:20.057Z,23.00
2023-03-05T02:37:09.117Z,19.88
2023-03-05T02:39:55.641Z,21.85
2023-03-05T02:42:42.424Z,20.88
2023-03-05T02:45:29.684Z,20.67
2023-03-05T02:48:15.222Z,20.73
2023-03-05T02:51:03.412Z,22.73
2023-03-05T02:53:49.097Z,22.02
2023-03-05T02:56:35.826Z,21.08
2023-03-05T02:59:21.365Z,20.30
2023-03-05T03:02:06.892Z,20.35
2023-03-05T03:04:52.438Z,20.23
2023-03-05T03:07:38.243Z,21.52
2023-03-05T03:10:24.279Z,19.63
2023-03-05T03:13:10.049Z,22.02
2023-03-05T03:16:03.489Z,20.60
2023-03-05T03:18:49.229Z,23.35
2023-03-05T03:21:34.735Z,19.88
2023-03-05T03:24:20.575Z,19.95
2023-03-05T03:27:06.005Z,20.90
2023-03-05T03:29:51.807Z,20.10
2023-03-05T03:32:37.475Z,21.10
2023-03-05T03:35:23.004Z,20.08
2023-03-05T03:38:08.511Z,19.65
2023-03-05T03:40:54.038Z,21.13
2023-03-05T03:43:39.526Z,19.63
2023-03-05T03:46:25.277Z,22.65
2023-03-05T03:49:21.851Z,20.88
2023-03-05T03:52:07.876Z,20.63
2023-03-05T03:54:55.773Z,22.33
2023-03-05T03:57:41.277Z,20.10
2023-03-05T04:00:27.200Z,21.08
2023-03-05T04:03:12.591Z,19.60
2023-03-05T04:05:58.403Z,20.33
2023-03-05T04:08:44.014Z,19.83
2023-03-05T04:11:29.546Z,19.85
2023-03-05T04:14:15.049Z,19.55
2023-03-05T04:17:00.757Z,23.30
2023-03-05T04:19:46.369Z,20.23
2023-03-05T04:22:31.955Z,20.08
2023-03-05T04:25:17.761Z,20.67
2023-03-05T04:28:03.525Z,19.20
2023-03-05T04:30:49.132Z,20.63
2023-03-05T04:33:34.633Z,17.58
2023-03-05T04:36:20.070Z,18.70
2023-03-05T04:39:05.667Z,19.92
2023-03-05T04:41:51.210Z,18.48
2023-03-05T04:44:36.787Z,19.35
2023-03-05T04:47:22.655Z,19.45
2023-03-05T04:50:09.022Z,20.17
2023-03-05T04:52:54.892Z,20.77
2023-03-05T04:55:40.733Z,18.90
2023-03-05T04:58:26.121Z,20.85
2023-03-05T05:01:11.711Z,20.10
2023-03-05T05:03:57.148Z,19.80
2023-03-05T05:06:42.668Z,21.30
2023-03-05T05:09:28.170Z,19.23
2023-03-05T05:12:13.691Z,20.83
2023-03-05T05:14:59.276Z,21.63
2023-03-05T05:17:44.879Z,21.30
2023-03-05T05:20:30.242Z,19.92
2023-03-05T05:23:16.798Z,20.10
2023-03-05T05:26:04.482Z,20.02
2023-03-05T05:28:50.258Z,19.60
2023-03-05T05:31:36.052Z,19.13
2023-03-05T05:34:21.526Z,18.88
2023-03-05T05:37:07.064Z,17.67
2023-03-05T05:39:52.950Z,20.35
2023-03-05T05:42:38.429Z,19.13
2023-03-05T05:45:24.192Z,17.98
2023-03-05T05:48:09.998Z,18.67
2023-03-05T05:50:55.834Z,19.40
2023-03-05T05:53:42.989Z,18.75
2023-03-05T05:56:28.450Z,19.58
2023-03-05T05:59:14.220Z,17.98
2023-03-05T06:01:59.809Z,19.48
2023-03-05T06:04:45.643Z,19.17
2023-03-05T06:07:31.673Z,19.50
2023-03-05T06:10:17.772Z,19.23
2023-03-05T06:13:03.047Z,20.20
2023-03-05T06:15:59.702Z,20.05
2023-03-05T06:18:45.770Z,20.85
2023-03-05T06:21:32.459Z,19.63
2023-03-05T06:24:19.350Z,19.35
2023-03-05T06:27:06.083Z,19.25
2023-03-05T06:29:56.679Z,20.73
2023-03-05T06:32:42.199Z,18.48
2023-03-05T06:35:27.773Z,19.10
2023-03-05T06:38:13.203Z,19.17
2023-03-05T06:41:05.856Z,20.27
2023-03-05T06:43:51.892Z,19.50
2023-03-05T06:46:39.945Z,19.23
2023-03-05T06:49:25.658Z,18.67
2023-03-05T06:52:12.782Z,18.83
2023-03-05T06:54:58.317Z,19.10
2023-03-05T06:57:43.690Z,20.02
2023-03-05T07:00:30.707Z,19.55
2023-03-05T07:03:16.181Z,17.98
2023-03-05T07:06:15.835Z,19.15
2023-03-05T07:11:47.983Z,17.73
2023-03-05T07:14:33.232Z,17.20
2023-03-05T07:17:18.748Z,18.45
2023-03-05T07:20:05.938Z,19.70
2023-03-05T07:22:51.505Z,16.10
2023-03-05T07:25:38.963Z,17.50
2023-03-05T07:28:24.770Z,16.65
2023-03-05T07:31:22.248Z,16.80
2023-03-05T07:34:07.861Z,16.85
2023-03-05T07:36:53.605Z,17.08
2023-03-05T07:39:39.078Z,16.88
2023-03-05T07:42:24.964Z,17.63
2023-03-05T07:45:22.680Z,16.73
2023-03-05T07:48:12.185Z,17.35
2023-03-05T07:51:03.043Z,17.80
2023-03-05T07:53:50.759Z,16.67
2023-03-05T07:56:36.222Z,17.80
2023-03-05T07:59:21.992Z,18.42
2023-03-05T08:02:07.868Z,17.83
2023-03-05T08:04:53.287Z,18.08
2023-03-05T08:07:38.896Z,18.02
2023-03-05T08:10:24.473Z,17.67
2023-03-05T08:13:10.491Z,16.25
2023-03-05T08:15:56.254Z,17.13
2023-03-05T08:18:42.035Z,16.15
2023-03-05T08:21:30.525Z,16.88
2023-03-05T08:24:16.393Z,16.35
2023-03-05T08:27:01.822Z,16.10
2023-03-05T08:29:47.361Z,16.10
2023-03-05T08:32:33.130Z,16.48
2023-03-05T08:35:18.869Z,17.42
2023-03-05T08:38:05.257Z,17.42
2023-03-05T08:40:50.516Z,16.58
2023-03-05T08:43:36.815Z,17.33
2023-03-05T08:46:22.832Z,17.63
2023-03-05T08:49:08.603Z,16.90
2023-03-05T08:51:54.377Z,17.50
2023-03-05T08:54:39.958Z,18.58
2023-03-05T08:57:25.488Z,17.52
2023-03-05T09:00:12.697Z,19.33
2023-03-05T09:02:58.279Z,17.45
2023-03-05T09:05:43.820Z,19.08
2023-03-05T09:08:30.252Z,19.23
2023-03-05T09:11:16.143Z,18.65
2023-03-05T09:14:06.558Z,17.92
2023-03-05T09:16:51.946Z,18.63
2023-03-05T09:19:37.668Z,19.05
2023-03-05T09:22:23.295Z,21.10
2023-03-05T09:25:11.630Z,20.42
2023-03-05T09:27:57.340Z,19.85
2023-03-05T09:30:42.884Z,18.30
2023-03-05T09:33:28.244Z,18.40
2023-03-05T09:36:20.001Z,18.92
2023-03-05T09:39:07.017Z,20.77
2023-03-05T09:42:10.263Z,20.40
2023-03-05T09:45:16.383Z,19.85
2023-03-05T09:48:22.722Z,19.52
2023-03-05T09:51:16.443Z,18.65
2023-03-05T09:54:11.114Z,19.35
2023-03-05T09:57:01.621Z,20.27
2023-03-05T10:02:44.802Z,21.67
2023-03-05T10:05:51.466Z,22.90
2023-03-05T10:08:49.076Z,21.55
2023-03-05T10:11:44.960Z,22.13
2023-03-05T10:14:38.121Z,22.17
2023-03-05T10:17:39.893Z,22.83
2023-03-05T10:20:38.817Z,21.02
2023-03-05T10:23:29.703Z,20.85
2023-03-05T10:26:32.172Z,21.20
2023-03-05T10:29:32.863Z,23.10
2023-03-05T10:32:45.043Z,22.13
2023-03-05T10:35:40.757Z,22.15
2023-03-05T10:38:50.821Z,22.95
2023-03-05T10:42:20.553Z,23.60
2023-03-05T10:45:26.025Z,22.15
2023-03-05T10:48:48.889Z,23.10
2023-03-05T10:52:09.715Z,22.88
2023-03-05T10:54:55.341Z,20.80
2023-03-05T10:57:41.140Z,21.02
2023-03-05T11:00:28.091Z,23.88
2023-03-05T11:03:14.046Z,23.23
2023-03-05T11:06:02.303Z,23.38
2023-03-05T11:08:48.434Z,22.55
2023-03-05T11:11:34.271Z,24.25
2023-03-05T11:14:31.302Z,23.85
2023-03-05T11:17:24.482Z,24.85
2023-03-05T11:20:31.480Z,24.70
2023-03-05T11:23:17.338Z,23.80
2023-03-05T11:26:13.654Z,22.58
2023-03-05T11:29:03.189Z,23.92
2023-03-05T11:31:49.365Z,22.47
2023-03-05T11:34:35.909Z,21.80
2023-03-05T11:37:30.314Z,21.83
2023-03-05T11:40:25.140Z,22.40
2023-03-05T11:43:17.061Z,22.75
2023-03-05T11:46:04.916Z,22.27
2023-03-05T11:48:50.618Z,22.45
2023-03-05T11:51:58.362Z,22.50
2023-03-05T11:55:14.728Z,21.65
2023-03-05T11:58:22.320Z,20.67
2023-03-05T12:01:51.227Z,19.10
2023-03-05T12:04:37.720Z,19.90
2023-03-05T12:07:40.053Z,19.77
2023-03-05T12:10:26.262Z,19.10
2023-03-05T12:13:38.838Z,17.70
2023-03-05T12:16:28.706Z,19.10
2023-03-05T12:19:20.104Z,18.33
2023-03-05T12:22:21.989Z,18.85
2023-03-05T12:25:26.333Z,18.42
2023-03-05T12:28:17.350Z,20.20
2023-03-05T12:31:06.736Z,19.23
2023-03-05T12:33:52.283Z,18.48
2023-03-05T12:36:39.802Z,18.35
2023-03-05T12:40:00.883Z,17.95
2023-03-05T12:42:48.423Z,19.02
2023-03-05T12:45:42.375Z,20.85
2023-03-05T12:48:27.924Z,18.85
2023-03-05T12:51:17.871Z,17.60
2023-03-05T12:54:34.507Z,16.55
2023-03-05T12:57:24.199Z,17.27
2023-03-05T13:00:22.311Z,16.35
2023-03-05T13:03:18.015Z,16.75
2023-03-05T13:06:06.632Z,15.70
2023-03-05T13:09:00.901Z,17.17
2023-03-05T13:11:49.764Z,17.42
2023-03-05T13:14:47.041Z,16.88
2023-03-05T13:17:52.069Z,14.88
2023-03-05T13:20:42.678Z,17.13
2023-03-05T13:23:29.369Z,16.65
2023-03-05T13:26:18.439Z,15.40
2023-03-05T13:29:09.843Z,14.57
2023-03-05T13:32:02.209Z,15.50
2023-03-05T13:34:48.266Z,15.95
2023-03-05T13:37:38.103Z,15.13
2023-03-05T13:40:29.495Z,16.20
2023-03-05T13:43:20.608Z,15.55
2023-03-05T13:46:06.276Z,14.77
2023-03-05T13:48:51.842Z,14.73
2023-03-05T13:51:59.236Z,14.50
2023-03-05T13:54:44.780Z,13.25
2023-03-05T13:57:45.093Z,11.00
2023-03-05T14:00:38.822Z,8.45
2023-03-05T14:03:28.175Z,8.48
2023-03-05T14:06:19.214Z,8.57
2023-03-05T14:09:25.629Z,8.73
2023-03-05T14:12:38.482Z,9.50
2023-03-05T14:15:30.378Z,8.25
2023-03-05T14:18:19.280Z,8.38
2023-03-05T14:21:13.044Z,9.13
2023-03-05T14:24:13.224Z,8.88
2023-03-05T14:27:05.539Z,7.72
2023-03-05T14:29:51.605Z,7.15
2023-03-05T14:32:37.792Z,7.70
2023-03-05T14:35:26.371Z,7.20
2023-03-05T14:38:22.016Z,6.82
2023-03-05T14:41:21.130Z,6.22
2023-03-05T14:44:16.107Z,7.90
2023-03-05T14:47:02.059Z,6.00
2023-03-05T14:49:47.588Z,7.00
2023-03-05T14:52:34.026Z,7.75
2023-03-05T14:55:22.942Z,6.35
2023-03-05T14:58:14.628Z,6.63
2023-03-05T15:01:00.357Z,6.78
2023-03-05T15:03:45.888Z,7.63
2023-03-05T15:06:36.169Z,7.13
2023-03-05T15:09:22.504Z,7.18
2023-03-05T15:12:09.513Z,6.65
2023-03-05T15:14:56.282Z,7.13
2023-03-05T15:17:44.446Z,8.50
2023-03-05T15:20:31.160Z,9.63
2023-03-05T15:23:17.096Z,10.20
2023-03-05T15:26:06.289Z,9.73
2023-03-05T15:28:52.113Z,9.88
2023-03-05T15:31:40.374Z,9.57
2023-03-05T15:34:26.097Z,11.95
2023-03-05T15:37:11.829Z,11.32
2023-03-05T15:39:57.302Z,11.35
2023-03-05T15:42:42.948Z,10.57
2023-03-05T15:45:31.321Z,10.98
2023-03-05T15:48:16.790Z,10.30
2023-03-05T15:51:05.592Z,10.40
2023-03-05T15:53:51.318Z,10.13
2023-03-05T15:56:36.961Z,9.82
2023-03-05T15:59:22.774Z,8.90
2023-03-05T16:02:08.543Z,8.90
2023-03-05T16:04:54.284Z,8.82
2023-03-05T16:07:42.728Z,8.38
2023-03-05T16:10:29.629Z,8.82
2023-03-05T16:13:18.572Z,7.63
2023-03-05T16:16:07.875Z,8.27
2023-03-05T16:18:53.917Z,8.32
2023-03-05T16:21:39.381Z,7.80
2023-03-05T16:24:24.953Z,7.18
2023-03-05T16:27:11.019Z,8.60
2023-03-05T16:29:58.073Z,8.52
2023-03-05T16:32:44.037Z,8.32
2023-03-05T16:35:29.998Z,8.85
2023-03-05T16:38:15.930Z,8.80
2023-03-05T16:41:09.156Z,9.05
2023-03-05T16:43:56.470Z,9.23
2023-03-05T16:46:43.837Z,9.15
2023-03-05T16:49:29.971Z,9.45
2023-03-05T16:52:19.795Z,8.63
2023-03-05T16:55:06.531Z,9.07
2023-03-05T16:57:52.506Z,10.00
2023-03-05T17:00:38.120Z,9.13
2023-03-05T17:03:23.907Z,9.40
2023-03-05T17:06:14.869Z,9.38
2023-03-05T17:09:01.458Z,9.40
2023-03-05T17:11:47.330Z,10.38
2023-03-05T17:14:33.000Z,10.18
2023-03-05T17:17:18.794Z,9.95
2023-03-05T17:20:05.063Z,10.48
2023-03-05T17:22:50.981Z,10.52
2023-03-05T17:25:37.544Z,11.05
2023-03-05T17:28:23.435Z,11.05
2023-03-05T17:31:09.377Z,10.40
2023-03-05T17:33:55.860Z,10.60
2023-03-05T17:36:41.505Z,11.48
2023-03-05T17:39:27.091Z,11.07
2023-03-05T17:42:13.023Z,11.15
2023-03-05T17:44:59.222Z,11.02
2023-03-05T17:47:45.156Z,10.38
2023-03-05T17:50:30.783Z,13.35
2023-03-05T17:53:16.743Z,12.18
2023-03-05T17:56:05.668Z,12.65
2023-03-05T17:58:52.133Z,22.35
2023-03-05T18:01:38.027Z,27.58
2023-03-05T18:04:23.706Z,24.08
2023-03-05T18:07:10.279Z,14.98
2023-03-05T18:09:55.784Z,11.77
2023-03-05T18:12:41.740Z,12.25
2023-03-05T18:15:28.257Z,12.05
2023-03-05T18:18:15.342Z,12.55
2023-03-05T18:21:01.050Z,10.80
2023-03-05T18:23:46.567Z,10.20
2023-03-05T18:26:32.113Z,10.65
2023-03-05T18:29:18.835Z,11.30
2023-03-05T18:32:04.645Z,13.35
2023-03-05T18:34:51.648Z,10.63
2023-03-05T18:37:39.772Z,10.95
2023-03-05T18:40:28.301Z,11.57
2023-03-05T18:43:14.430Z,10.25
2023-03-05T18:46:00.243Z,11.27
2023-03-05T18:48:48.098Z,11.32
2023-03-05T18:51:34.406Z,10.10
2023-03-05T18:54:20.087Z,11.07
2023-03-05T18:57:06.021Z,10.32
2023-03-05T18:59:51.723Z,13.02
2023-03-05T19:02:37.407Z,13.45
2023-03-05T19:05:25.279Z,12.65
2023-03-05T19:08:10.630Z,12.57
2023-03-05T19:10:56.266Z,12.65
2023-03-05T19:13:48.969Z,11.80
2023-03-05T19:16:40.523Z,12.15
2023-03-05T19:19:26.021Z,10.32
2023-03-05T19:22:12.371Z,10.27
2023-03-05T19:24:58.599Z,10.23
2023-03-05T19:27:44.726Z,11.02
2023-03-05T19:30:30.236Z,11.20
2023-03-05T19:33:15.966Z,12.07
2023-03-05T19:36:01.388Z,12.90
2023-03-05T19:38:48.680Z,11.57
2023-03-05T19:41:36.420Z,12.38
2023-03-05T19:44:22.175Z,12.48
2023-03-05T19:47:07.806Z,13.27
2023-03-05T19:49:53.578Z,10.55
2023-03-05T19:52:39.045Z,12.43
2023-03-05T19:55:24.666Z,10.18
2023-03-05T19:58:10.198Z,10.63
2023-03-05T20:00:55.801Z,12.07
2023-03-05T20:03:43.664Z,10.65
2023-03-05T20:06:30.634Z,10.55
2023-03-05T20:09:17.232Z,9.52
2023-03-05T20:12:05.557Z,9.77
2023-03-05T20:14:51.191Z,10.85
2023-03-05T20:17:36.653Z,10.55
2023-03-05T20:20:22.397Z,10.93
2023-03-05T20:23:08.086Z,10.85
2023-03-05T20:25:53.480Z,11.07
2023-03-05T20:28:39.073Z,12.45
2023-03-05T20:31:26.942Z,11.55
2023-03-05T20:34:15.720Z,11.30
2023-03-05T20:37:01.584Z,10.50
2023-03-05T20:39:47.792Z,10.05
2023-03-05T20:42:33.544Z,9.32
2023-03-05T20:45:19.023Z,9.68
2023-03-05T20:48:04.710Z,9.35
2023-03-05T20:50:51.074Z,9.43
2023-03-05T20:53:36.662Z,9.88
2023-03-05T20:56:22.373Z,9.30
2023-03-05T20:59:09.106Z,10.65
2023-03-05T21:01:54.639Z,9.88
2023-03-05T21:04:40.727Z,9.77
2023-03-05T21:07:28.080Z,9.15
2023-03-05T21:10:14.192Z,9.70
2023-03-05T21:13:00.980Z,9.65
2023-03-05T21:15:46.503Z,9.80
2023-03-05T21:18:31.938Z,9.68
2023-03-05T21:21:18.059Z,10.00
2023-03-05T21:24:03.808Z,9.25
2023-03-05T21:26:49.455Z,8.68
2023-03-05T21:29:35.162Z,9.50
2023-03-05T21:32:20.783Z,9.45
2023-03-05T21:35:06.738Z,9.57
2023-03-05T21:37:52.646Z,9.60
2023-03-05T21:40:45.328Z,9.02
2023-03-05T21:43:31.648Z,9.10
2023-03-05T21:46:17.735Z,9.25
2023-03-05T21:49:03.705Z,9.00
2023-03-05T21:52:03.353Z,8.85
2023-03-05T21:54:48.843Z,8.45
2023-03-05T21:57:34.555Z,8.82
2023-03-05T22:00:23.141Z,9.20
2023-03-05T22:03:08.688Z,10.80
2023-03-05T22:05:54.766Z,9.32
2023-03-05T22:08:40.992Z,9.77
2023-03-05T22:11:26.705Z,10.32
2023-03-05T22:14:12.188Z,9.57
2023-03-05T22:17:02.126Z,9.38
2023-03-05T22:22:33.510Z,10.25
2023-03-05T22:25:19.200Z,9.73
2023-03-05T22:28:05.638Z,10.02
2023-03-05T22:30:51.598Z,10.43
2023-03-05T22:33:37.288Z,9.93
2023-03-05T22:36:23.711Z,10.40
2023-03-05T22:39:09.492Z,10.32
2023-03-05T22:41:55.108Z,9.65
2023-03-05T22:44:40.653Z,11.15
2023-03-05T22:47:27.269Z,12.05
2023-03-05T22:50:13.096Z,10.45
2023-03-05T22:52:58.595Z,14.07
2023-03-05T22:55:44.035Z,9.88
2023-03-05T22:58:29.597Z,9.80
2023-03-05T23:01:23.663Z,9.98
2023-03-05T23:04:18.728Z,10.45
2023-03-05T23:07:04.418Z,8.98
2023-03-05T23:09:59.854Z,9.55
2023-03-05T23:12:51.249Z,9.50
2023-03-05T23:15:39.022Z,9.80
2023-03-05T23:18:24.793Z,9.30
2023-03-05T23:21:10.359Z,10.10
2023-03-05T23:23:57.597Z,9.60
2023-03-05T23:26:43.326Z,9.10
2023-03-05T23:29:30.402Z,8.50
2023-03-05T23:32:16.202Z,8.82
2023-03-05T23:35:01.618Z,9.05
2023-03-05T23:37:47.622Z,9.25
2023-03-05T23:40:41.167Z,8.68
2023-03-05T23:43:26.844Z,9.95
2023-03-05T23:46:12.520Z,8.38
2023-03-05T23:48:57.956Z,9.50
2023-03-05T23:51:43.466Z,10.75
2023-03-05T23:54:28.922Z,8.27
2023-03-05T23:57:14.560Z,8.60
2023-03-05T23:59:59.986Z,8.63
